Weather reports worldwide

Advertisment
Salsburgh, United Kingdom (99024): temperature & dewpoint: 11.08.2017 08:00:00 - 17.08.2017 08:00:00 (BST)Salsburgh, United Kingdom (99024): wind speed & gusts: 11.08.2017 08:00:00 - 17.08.2017 08:00:00 (BST)Salsburgh, United Kingdom (99024): wind direction: 11.08.2017 08:00:00 - 17.08.2017 08:00:00 (BST)Salsburgh, United Kingdom (99024): visibility: 11.08.2017 08:00:00 - 17.08.2017 08:00:00 (BST)Salsburgh, United Kingdom (99024): precipitation: 11.08.2017 08:00:00 - 17.08.2017 08:00:00 (BST)
Date & Time tt [°C] td [°C] ff [km/h] ff [kn] fx [km/h] fx [kn] dd vv [km] rr [mm]
17.08.2017 08:00:00 11,5 11,5 13 7 - - SSW - 0,0
17.08.2017 07:00:00 10,9 10,8 15 8 - - SSW - 0,0
17.08.2017 06:00:00 10,5 10,1 15 8 - - SSW - 0,0
17.08.2017 05:00:00 10,5 9,8 9 5 - - SSW - 0,0
17.08.2017 04:00:00 11,5 11,1 8 4 - - WSW - 0,0
17.08.2017 03:00:00 12,8 12,5 21 11 - - WSW - 0,2
17.08.2017 02:00:00 13,9 13,8 21 11 - - SSW - 0,2
17.08.2017 01:00:00 13,9 13,8 22 12 - - S - 2,0
17.08.2017 00:00:00 14,0 13,8 28 15 - - S - 1,2
16.08.2017 23:00:00 14,0 13,6 29 16 50 27 S - 0,4
16.08.2017 22:00:00 14,1 13,5 39 21 59 32 S - 0,2
16.08.2017 21:00:00 14,1 13,0 42 23 63 34 S - 0,0
16.08.2017 20:00:00 13,8 13,2 44 24 68 37 S - 0,4
16.08.2017 19:00:00 14,3 12,6 50 27 80 43 S - 0,0
16.08.2017 18:00:00 14,5 12,5 48 26 74 40 S - 0,0
16.08.2017 17:00:00 14,6 12,7 48 26 68 37 S - 0,0
16.08.2017 16:00:00 13,4 12,6 42 23 65 35 S - 0,4
16.08.2017 15:00:00 12,9 11,7 39 21 61 33 S - 1,0
16.08.2017 14:00:00 13,3 12,1 34 18 55 30 S - 0,0
16.08.2017 13:00:00 13,0 11,2 34 18 52 28 S - 0,0
16.08.2017 12:00:00 12,5 10,9 31 17 52 28 S - 1,2
16.08.2017 11:00:00 13,7 10,2 28 15 54 29 S - 0,0
16.08.2017 10:00:00 14,1 10,5 163 88 54 29 N 23 0,0
16.08.2017 09:00:00 13,6 11,4 34 18 46 25 S - 0,0
16.08.2017 08:00:00 11,8 10,9 26 14 - - SSE - 0,0
16.08.2017 07:00:00 10,7 10,4 21 11 - - SSE - 0,0
16.08.2017 06:00:00 10,4 10,0 21 11 - - SSE - 0,0
16.08.2017 05:00:00 10,2 9,7 16 9 - - SSE - 0,0
16.08.2017 04:00:00 9,8 9,2 15 8 - - SSE - 0,0
16.08.2017 03:00:00 9,2 8,8 13 7 - - SSE - 0,0
16.08.2017 02:00:00 9,1 8,6 15 8 - - S - 0,0
16.08.2017 01:00:00 9,1 8,6 11 6 - - S - 0,0
16.08.2017 00:00:00 9,4 8,6 15 8 - - SW - 0,0
15.08.2017 23:00:00 10,4 9,4 18 10 - - SW - 0,0
15.08.2017 22:00:00 10,3 8,9 13 7 - - SSW - 0,0
15.08.2017 21:00:00 11,5 9,7 18 10 - - SW - 0,0
15.08.2017 20:00:00 12,5 9,8 22 12 - - WSW - 0,0
15.08.2017 19:00:00 13,9 9,8 28 15 48 26 WSW - 0,0
15.08.2017 18:00:00 14,7 10,1 29 16 48 26 WSW - 0,0
15.08.2017 17:00:00 15,6 11,1 34 18 52 28 WSW - 0,0
15.08.2017 16:00:00 14,5 9,9 35 19 50 27 WSW - 0,0
15.08.2017 15:00:00 15,1 9,7 29 16 46 25 WSW - 0,0
15.08.2017 14:00:00 15,3 10,3 28 15 46 25 WSW - 0,0
15.08.2017 13:00:00 15,4 9,8 29 16 - - WSW - 0,0
15.08.2017 12:00:00 15,5 11,3 26 14 - - SW - 0,0
15.08.2017 11:00:00 13,0 10,3 22 12 - - WSW - 0,0
15.08.2017 10:00:00 12,7 11,3 16 9 - - W 10 0,0
15.08.2017 09:00:00 11,8 11,3 18 10 - - W - 0,0
15.08.2017 08:00:00 10,8 10,8 18 10 - - WSW - 0,0
15.08.2017 07:00:00 10,9 10,9 16 9 - - W - 0,0
15.08.2017 06:00:00 11,4 11,4 16 9 - - W - 0,4
15.08.2017 05:00:00 11,9 11,9 18 10 - - WSW - 1,8
15.08.2017 04:00:00 12,0 12,0 8 4 - - SW - 0,8
15.08.2017 03:00:00 11,7 11,7 9 5 - - SSW - 1,6
15.08.2017 02:00:00 11,8 11,7 8 4 - - S - 1,8
15.08.2017 01:00:00 11,7 11,5 5 3 - - S - 1,4
15.08.2017 00:00:00 12,2 11,9 8 4 - - SW - 1,2
14.08.2017 23:00:00 12,8 12,7 9 5 - - SSW - 0,4
14.08.2017 22:00:00 13,2 13,0 15 8 - - S 10 1,2
14.08.2017 21:00:00 13,5 13,3 16 9 - - S - 0,8
14.08.2017 20:00:00 13,7 13,3 24 13 - - S - 1,0
14.08.2017 19:00:00 14,1 13,5 28 15 - - S - 0,2
14.08.2017 18:00:00 14,7 13,4 29 16 - - S - 0,0
14.08.2017 17:00:00 14,9 13,5 31 17 48 26 S - 0,0
14.08.2017 16:00:00 14,9 13,7 34 18 55 30 S - 0,2
14.08.2017 15:00:00 15,2 13,9 35 19 55 30 S - 0,0
14.08.2017 14:00:00 13,9 13,1 39 21 55 30 S - 0,0
14.08.2017 13:00:00 14,4 12,7 29 16 52 28 S - 0,0
14.08.2017 12:00:00 13,4 12,7 34 18 48 26 S - 0,0
14.08.2017 11:00:00 12,3 11,6 34 18 48 26 SSE - 0,6
14.08.2017 10:00:00 12,1 11,3 2 1 52 28 N 80 0,2
14.08.2017 09:00:00 11,7 11,1 28 15 - - SSE - 0,4
14.08.2017 08:00:00 10,6 10,1 16 9 - - SE - 1,2
14.08.2017 07:00:00 10,1 8,9 15 8 - - ESE - 0,4
14.08.2017 06:00:00 10,6 8,4 18 10 - - ESE - 0,0
14.08.2017 05:00:00 10,7 8,1 13 7 - - SE - 0,2
14.08.2017 04:00:00 10,7 7,7 16 9 - - SE - 0,0
14.08.2017 03:00:00 10,9 7,1 15 8 - - SE - 0,0
14.08.2017 02:00:00 10,7 6,7 18 10 - - SSE - 0,0
14.08.2017 01:00:00 10,6 6,5 18 10 - - SSE - 0,0
14.08.2017 00:00:00 9,8 6,9 15 8 - - SSE - 0,0
13.08.2017 23:00:00 10,0 6,7 13 7 - - S - 0,0
13.08.2017 22:00:00 10,7 6,6 15 8 - - SSE - 0,0
13.08.2017 21:00:00 12,3 8,1 9 5 - - SE - 0,0
13.08.2017 20:00:00 13,3 8,1 9 5 - - SSE - 0,0
13.08.2017 19:00:00 13,7 6,9 15 8 - - S - 0,0
13.08.2017 18:00:00 15,1 8,1 15 8 - - S - 0,0
13.08.2017 17:00:00 14,2 5,9 15 8 - - SW - 0,0
13.08.2017 16:00:00 15,0 7,4 15 8 - - WSW - 0,0
13.08.2017 15:00:00 14,2 7,0 15 8 - - WSW - 0,0
13.08.2017 14:00:00 14,1 8,9 13 7 - - WSW - 0,0
13.08.2017 13:00:00 12,2 8,6 15 8 - - W - 0,0
13.08.2017 12:00:00 12,4 8,7 11 6 - - WSW - 0,0
13.08.2017 11:00:00 13,2 8,7 15 8 - - W - 0,0
13.08.2017 10:00:00 11,8 8,8 13 7 - - W - 0,0
13.08.2017 09:00:00 10,2 9,2 15 8 - - WSW - 0,0
13.08.2017 08:00:00 9,1 8,7 11 6 - - SW - 0,0
13.08.2017 07:00:00 6,7 6,5 8 4 - - S - 0,0
13.08.2017 06:00:00 6,4 6,1 8 4 - - SSW - 0,0
13.08.2017 05:00:00 6,3 6,0 9 5 - - SSW - 0,0
13.08.2017 04:00:00 6,2 5,7 9 5 - - SSW - 0,0
13.08.2017 03:00:00 5,7 5,2 8 4 - - SSW - 0,0
13.08.2017 02:00:00 6,7 6,1 9 5 - - SW - 0,0
13.08.2017 01:00:00 7,7 6,7 11 6 - - SW - 0,0
13.08.2017 00:00:00 8,2 7,2 11 6 - - WSW - 0,0
12.08.2017 23:00:00 9,0 6,2 13 7 - - W - 0,0
12.08.2017 22:00:00 9,9 7,7 13 7 - - W - 0,0
12.08.2017 21:00:00 11,2 7,5 15 8 - - W - 0,0
12.08.2017 20:00:00 13,3 7,2 18 10 - - WNW - 0,0
12.08.2017 19:00:00 14,8 7,5 26 14 - - WNW - 0,0
12.08.2017 18:00:00 15,8 8,0 22 12 - - W - 0,0
12.08.2017 17:00:00 14,1 8,2 22 12 - - WNW - 0,0
12.08.2017 16:00:00 14,8 9,7 11 6 - - WSW - 0,0
12.08.2017 15:00:00 14,5 10,9 13 7 - - SW - 0,0
12.08.2017 14:00:00 12,6 10,8 13 7 - - SSW - 0,0
12.08.2017 13:00:00 11,6 9,9 11 6 - - SSW - 0,0
12.08.2017 12:00:00 11,1 10,1 4 2 - - SW - 0,2
12.08.2017 11:00:00 10,6 10,0 8 4 - - E - 0,2
12.08.2017 10:00:00 10,7 10,4 18 10 - - N 0,6 0,2
12.08.2017 09:00:00 11,1 10,9 15 8 - - NNE - 0,2
12.08.2017 08:00:00 11,8 11,8 13 7 - - W - 0,0
12.08.2017 07:00:00 11,7 11,6 15 8 - - W - 0,2
12.08.2017 06:00:00 11,4 11,4 13 7 - - WSW - 0,0
12.08.2017 05:00:00 11,5 11,4 16 9 - - WSW - 0,0
12.08.2017 04:00:00 11,4 11,3 18 10 - - WSW - 0,0
12.08.2017 03:00:00 11,4 11,3 22 12 - - WSW - 0,0
12.08.2017 02:00:00 11,4 11,2 24 13 - - WSW - 0,0
12.08.2017 01:00:00 11,4 11,1 21 11 - - WSW - 0,0
12.08.2017 00:00:00 11,2 11,0 26 14 - - WSW - 0,2
11.08.2017 23:00:00 11,7 10,9 22 12 - - WSW - 0,0
11.08.2017 22:00:00 11,8 11,4 26 14 48 26 WSW - 0,0
11.08.2017 21:00:00 12,8 11,2 26 14 - - WSW - 0,0
11.08.2017 20:00:00 13,3 11,1 34 18 54 29 WSW - 0,0
11.08.2017 19:00:00 13,4 12,5 29 16 50 27 W - 0,2
11.08.2017 18:00:00 14,7 13,1 31 17 46 25 WSW - 0,0
11.08.2017 17:00:00 15,3 14,4 28 15 - - WSW - 0,0
11.08.2017 16:00:00 15,2 14,7 29 16 48 26 WSW - 0,4
11.08.2017 15:00:00 14,8 14,7 31 17 52 28 WSW - 0,4
11.08.2017 14:00:00 14,5 14,1 37 20 54 29 SW - 0,2
11.08.2017 13:00:00 13,9 13,7 34 18 50 27 SW - 0,2
11.08.2017 12:00:00 13,3 13,0 31 17 48 26 SSW - 0,8
11.08.2017 11:00:00 13,6 12,7 31 17 50 27 SSW - 0,0
11.08.2017 10:00:00 12,6 12,0 28 15 46 25 N 80 0,0
11.08.2017 09:00:00 12,2 11,5 34 18 48 26 SSW - 0,0
11.08.2017 08:00:00 11,5 11,1 31 17 50 27 SSW - 0,2

tt = temperature
td = dewpoint
ff = wind speed
fx = gusts
dd = wind direction
vv = visibility
rr = precipitation

Next stations